Terminal Aerodrome Forecast
Issued by NWS

Home | Current Version | Previous Version | Text Only | Print | Product List | Glossary On
Versions: 1 2 3 4 5 6 7 8 9 10 11 12 13 14 15
000
FTUS45 KGJT 111416 AAA
TAFTEX
TAF AMD
KTEX 111416Z 1114/1212 29008KT 2SM -SN BKN009 OVC015
      TEMPO 1114/1116 4SM -SN SCT009 OVC015
     FM111600 27014G34KT P6SM -SN OVC015
     FM111800 27013G27KT P6SM VCSH BKN035
     FM112200 24011G27KT P6SM SCT080
     FM120300 21011G27KT P6SM SCT150=

USA.gov is the U.S. government's official web portal to all federal, state and local government web resources and services.